Log in Register

Login to your account

Username *
Password *
Remember Me

Create an account

Fields marked with an asterisk (*) are required.
Name *
Username *
Password *
Verify password *
Email *
Verify email *

Compte tenue de la situation sanitaire et des recommendations gouvernementales, l'accès à l'aéroclub de Savoie est réservé exclusivement à ses membres. 

Merci de nous contacter par téléphone avant d'envisager tout déplacement vers nos locaux.

 Le secrétariat est fermé suite au reconfinement, mais une permanene téléphonique est assurée du mercredi au samedi de 9h30 à 12h et de 13h30 à 17h. 

Les vols découverte sont suspendus jusqu'à nouvel ordre, mais leur vente reste disponible sur notre boutique en ligne (Paypal uniquement), ou par commande mail ou téléphone (tous moyens de paiement, dont ANCV). Les bons cadeau sont valables 1 an.

Vous avez un bon cadeau arrivant à expiration? N'hésitez pas à nous contacter.

 

Merci

Nous contacter

 Téléphone : +33 (0)4 79 54 41 81

Coordonnées détaillées et accès : cliquez ici

 
LFLB °C
    Ferienhaus Ostsee
[source: ADDS]
METAR
LFLB 221030Z AUTO 01004KT 310V060 CAVOK 16/08 Q1019 TEMPO FEW060TCU =
TAF LFLB 220800Z 2209/2309 36007KT 9999 FEW050 TEMPO 2212/2217 FEW060TCU BECMG 2217/2219 36012KT CAVOK
TAF
TAF LFLB 220800Z 2209/2309 36007KT 9999 FEW050 TEMPO 2212/2217 FEW060TCU BECMG 2217/2219 36012KT CAVOK =
SR / SS: 04:38 / 18:31 UTC (Lever/Coucher du soleil le 2021-04-22)
JSN Boot template designed by JoomlaShine.com